createdAt,value
2022-09-26T00:00:12.300Z,74.30
2022-09-26T00:02:55.293Z,74.50
2022-09-26T00:05:39.947Z,74.56
2022-09-26T00:08:22.760Z,74.36
2022-09-26T00:11:07.521Z,74.40
2022-09-26T00:13:52.383Z,74.88
2022-09-26T00:16:36.904Z,74.76
2022-09-26T00:19:20.370Z,74.67
2022-09-26T00:22:03.154Z,74.69
2022-09-26T00:24:45.895Z,74.80
2022-09-26T00:27:28.697Z,74.79
2022-09-26T00:30:12.619Z,74.87
2022-09-26T00:32:56.754Z,75.02
2022-09-26T00:35:40.281Z,75.11
2022-09-26T00:38:23.663Z,75.16
2022-09-26T00:41:08.211Z,75.11
2022-09-26T00:43:52.911Z,75.15
2022-09-26T00:46:38.048Z,75.80
2022-09-26T00:49:26.431Z,75.48
2022-09-26T00:52:13.868Z,75.58
2022-09-26T00:54:59.222Z,75.53
2022-09-26T00:57:56.444Z,75.74
2022-09-26T01:00:42.332Z,75.77
2022-09-26T01:03:26.710Z,76.00
2022-09-26T01:06:11.233Z,76.01
2022-09-26T01:08:58.315Z,75.96
2022-09-26T01:11:43.310Z,75.96
2022-09-26T01:14:26.282Z,76.02
2022-09-26T01:17:10.595Z,76.11
2022-09-26T01:20:08.591Z,76.15
2022-09-26T01:23:15.147Z,76.25
2022-09-26T01:26:27.859Z,76.44
2022-09-26T01:30:01.295Z,76.43
2022-09-26T01:33:09.686Z,76.46
2022-09-26T01:36:44.856Z,76.51
2022-09-26T01:39:40.637Z,76.35
2022-09-26T01:42:33.771Z,76.44
2022-09-26T01:45:19.574Z,76.50
2022-09-26T01:48:09.478Z,76.67
2022-09-26T01:50:56.431Z,76.66
2022-09-26T01:53:44.750Z,77.00
2022-09-26T01:56:32.616Z,76.93
2022-09-26T01:59:20.619Z,77.08
2022-09-26T02:02:13.677Z,77.08
2022-09-26T02:05:02.534Z,77.12
2022-09-26T02:07:52.976Z,77.27
2022-09-26T02:10:41.871Z,77.18
2022-09-26T02:13:32.654Z,77.14
2022-09-26T02:16:22.566Z,77.22
2022-09-26T02:19:14.338Z,77.21
2022-09-26T02:22:00.045Z,77.13
2022-09-26T02:24:42.927Z,77.28
2022-09-26T02:27:26.395Z,77.29
2022-09-26T02:30:10.665Z,77.12
2022-09-26T02:32:53.818Z,77.10
2022-09-26T02:35:55.154Z,77.07
2022-09-26T02:38:40.299Z,77.02
2022-09-26T02:41:50.579Z,77.11
2022-09-26T02:44:55.214Z,77.26
2022-09-26T02:47:52.618Z,77.22
2022-09-26T02:50:46.963Z,77.16
2022-09-26T02:53:49.793Z,77.28
2022-09-26T02:56:46.116Z,77.40
2022-09-26T02:59:36.327Z,77.36
2022-09-26T03:02:22.689Z,77.28
2022-09-26T03:05:28.007Z,77.28
2022-09-26T03:08:15.907Z,77.37
2022-09-26T03:11:04.902Z,77.53
2022-09-26T03:13:48.748Z,77.44
2022-09-26T03:16:37.405Z,77.53
2022-09-26T03:19:27.428Z,77.36
2022-09-26T03:22:11.178Z,77.34
2022-09-26T03:24:54.212Z,77.50
2022-09-26T03:27:43.728Z,77.48
2022-09-26T03:30:26.564Z,77.45
2022-09-26T03:33:29.265Z,77.28
2022-09-26T03:36:12.307Z,77.39
2022-09-26T03:38:55.073Z,77.52
2022-09-26T03:41:52.811Z,77.49
2022-09-26T03:44:44.062Z,77.42
2022-09-26T03:47:30.052Z,77.42
2022-09-26T03:50:15.028Z,77.34
2022-09-26T03:52:57.967Z,77.40
2022-09-26T03:55:40.768Z,77.28
2022-09-26T03:58:23.962Z,77.23
2022-09-26T04:01:09.627Z,77.18
2022-09-26T04:03:52.564Z,77.19
2022-09-26T04:06:35.382Z,76.89
2022-09-26T04:09:19.221Z,76.94
2022-09-26T04:12:05.628Z,77.05
2022-09-26T04:14:51.138Z,77.10
2022-09-26T04:17:36.463Z,77.15
2022-09-26T04:20:20.448Z,77.14
2022-09-26T04:23:03.980Z,77.18
2022-09-26T04:25:46.811Z,77.07
2022-09-26T04:28:31.040Z,77.22
2022-09-26T04:31:14.213Z,77.26
2022-09-26T04:34:06.527Z,77.19
2022-09-26T04:36:51.186Z,77.29
2022-09-26T04:39:35.970Z,77.40
2022-09-26T04:42:18.571Z,77.61
2022-09-26T04:45:01.440Z,77.78
2022-09-26T04:47:44.261Z,77.54
2022-09-26T04:50:54.472Z,77.80
2022-09-26T04:53:38.543Z,77.66
2022-09-26T04:56:32.674Z,77.80
2022-09-26T04:59:15.668Z,77.92
2022-09-26T05:02:10.008Z,77.97
2022-09-26T05:05:00.082Z,77.89
2022-09-26T05:07:44.862Z,78.00
2022-09-26T05:10:27.779Z,77.91
2022-09-26T05:13:16.124Z,77.98
2022-09-26T05:16:00.184Z,78.03
2022-09-26T05:18:43.871Z,78.01
2022-09-26T05:21:27.506Z,78.23
2022-09-26T05:24:29.858Z,78.09
2022-09-26T05:27:12.883Z,78.23
2022-09-26T05:29:56.469Z,78.31
2022-09-26T05:32:40.571Z,78.20
2022-09-26T05:35:23.628Z,78.35
2022-09-26T05:38:06.799Z,78.30
2022-09-26T05:40:57.692Z,78.41
2022-09-26T05:43:42.279Z,78.41
2022-09-26T05:46:28.340Z,78.44
2022-09-26T05:49:15.040Z,78.52
2022-09-26T05:51:59.304Z,78.50
2022-09-26T05:54:42.036Z,78.40
2022-09-26T05:57:52.647Z,78.46
2022-09-26T06:00:38.425Z,78.30
2022-09-26T06:03:22.859Z,78.31
2022-09-26T06:06:21.503Z,78.43
2022-09-26T06:09:10.414Z,78.38
2022-09-26T06:12:22.713Z,78.53
2022-09-26T06:15:09.508Z,78.50
2022-09-26T06:17:59.418Z,78.52
2022-09-26T06:20:42.228Z,78.44
2022-09-26T06:23:25.068Z,78.53
2022-09-26T06:26:23.618Z,78.43
2022-09-26T06:29:07.771Z,78.50
2022-09-26T06:31:56.212Z,78.56
2022-09-26T06:35:08.659Z,78.52
2022-09-26T06:38:01.047Z,78.46
2022-09-26T06:40:44.791Z,78.37
2022-09-26T06:43:27.761Z,78.49
2022-09-26T06:46:33.447Z,78.29
2022-09-26T06:49:30.223Z,78.19
2022-09-26T06:52:18.472Z,78.11
2022-09-26T06:55:07.682Z,78.02
2022-09-26T06:57:50.622Z,77.95
2022-09-26T07:00:35.563Z,77.99
2022-09-26T07:03:34.754Z,78.04
2022-09-26T07:06:27.721Z,77.79
2022-09-26T07:09:12.662Z,77.92
2022-09-26T07:12:16.474Z,77.88
2022-09-26T07:15:00.358Z,77.86
2022-09-26T07:17:48.060Z,77.33
2022-09-26T07:20:40.047Z,77.46
2022-09-26T07:23:32.471Z,76.96
2022-09-26T07:26:15.321Z,76.94
2022-09-26T07:28:58.146Z,76.87
2022-09-26T07:31:42.850Z,76.68
2022-09-26T07:34:45.943Z,76.91
2022-09-26T07:37:30.278Z,77.12
2022-09-26T07:40:20.443Z,76.92
2022-09-26T07:43:19.204Z,76.74
2022-09-26T07:46:22.043Z,76.62
2022-09-26T07:49:26.767Z,76.69
2022-09-26T07:52:24.931Z,76.50
2022-09-26T07:55:28.900Z,76.42
2022-09-26T07:58:43.232Z,75.66
2022-09-26T08:01:40.161Z,75.22
2022-09-26T08:05:03.361Z,74.87
2022-09-26T08:07:49.233Z,74.73
2022-09-26T08:10:52.118Z,74.26
2022-09-26T08:13:43.380Z,74.00
2022-09-26T08:16:46.543Z,73.83
2022-09-26T08:19:30.972Z,74.03
2022-09-26T08:22:14.571Z,73.82
2022-09-26T08:24:58.838Z,73.50
2022-09-26T08:27:57.393Z,73.30
2022-09-26T08:30:41.167Z,73.16
2022-09-26T08:33:25.161Z,73.59
2022-09-26T08:36:11.386Z,73.46
2022-09-26T08:39:12.261Z,73.43
2022-09-26T08:42:42.591Z,73.19
2022-09-26T08:46:18.134Z,72.58
2022-09-26T08:49:28.484Z,72.92
2022-09-26T08:52:27.688Z,72.94
2022-09-26T08:55:16.834Z,72.83
2022-09-26T08:58:02.878Z,73.39
2022-09-26T09:00:49.149Z,73.99
2022-09-26T09:03:38.882Z,74.32
2022-09-26T09:06:27.426Z,74.57
2022-09-26T09:09:15.682Z,74.51
2022-09-26T09:12:24.877Z,74.39
2022-09-26T09:15:40.309Z,74.24
2022-09-26T09:18:38.370Z,74.14
2022-09-26T09:21:47.450Z,74.36
2022-09-26T09:24:52.411Z,74.45
2022-09-26T09:27:53.904Z,74.32
2022-09-26T09:30:43.782Z,74.31
2022-09-26T09:33:46.614Z,73.76
2022-09-26T09:36:56.031Z,73.96
2022-09-26T09:39:58.622Z,73.71
2022-09-26T09:42:53.644Z,73.34
2022-09-26T09:45:42.893Z,72.90
2022-09-26T09:48:29.032Z,72.98
2022-09-26T09:51:38.330Z,72.35
2022-09-26T09:54:44.162Z,72.47
2022-09-26T09:57:48.141Z,72.64
2022-09-26T10:00:34.698Z,72.89
2022-09-26T10:03:38.831Z,72.87
2022-09-26T10:06:44.663Z,72.89
2022-09-26T10:09:35.516Z,73.52
2022-09-26T10:12:42.215Z,74.47
2022-09-26T10:15:31.393Z,72.39
2022-09-26T10:18:25.102Z,71.84
2022-09-26T10:21:40.745Z,71.70
2022-09-26T10:24:29.050Z,71.23
2022-09-26T10:27:22.196Z,70.77
2022-09-26T10:30:21.398Z,70.93
2022-09-26T10:33:06.319Z,71.16
2022-09-26T10:36:05.123Z,70.99
2022-09-26T10:39:15.714Z,70.56
2022-09-26T10:42:01.936Z,70.78
2022-09-26T10:44:48.495Z,70.78
2022-09-26T10:47:34.805Z,70.85
2022-09-26T10:50:36.675Z,71.33
2022-09-26T10:53:41.285Z,70.25
2022-09-26T10:56:28.114Z,68.20
2022-09-26T10:59:13.946Z,67.66
2022-09-26T11:01:59.926Z,67.78
2022-09-26T11:05:04.752Z,67.73
2022-09-26T11:08:10.147Z,67.51
2022-09-26T11:11:17.701Z,66.53
2022-09-26T11:14:10.947Z,66.48
2022-09-26T11:16:55.785Z,65.39
2022-09-26T11:19:53.930Z,64.05
2022-09-26T11:22:44.775Z,63.86
2022-09-26T11:25:32.285Z,63.13
2022-09-26T11:28:21.892Z,62.02
2022-09-26T11:31:37.726Z,60.85
2022-09-26T11:34:48.393Z,61.25
2022-09-26T11:38:05.579Z,60.02
2022-09-26T11:41:37.475Z,60.93
2022-09-26T11:44:49.730Z,61.54
2022-09-26T11:48:00.873Z,62.70
2022-09-26T11:51:24.356Z,62.22
2022-09-26T11:54:25.529Z,61.27
2022-09-26T11:57:22.034Z,61.88
2022-09-26T12:00:13.221Z,61.54
2022-09-26T12:03:27.882Z,60.59
2022-09-26T12:06:25.815Z,61.40
2022-09-26T12:09:24.503Z,61.20
2022-09-26T12:12:16.986Z,61.18
2022-09-26T12:15:14.915Z,61.58
2022-09-26T12:18:13.403Z,61.35
2022-09-26T12:21:11.082Z,60.68
2022-09-26T12:23:57.767Z,60.70
2022-09-26T12:26:51.750Z,60.55
2022-09-26T12:29:45.186Z,60.23
2022-09-26T12:32:47.945Z,60.25
2022-09-26T12:35:45.229Z,60.52
2022-09-26T12:38:43.601Z,59.58
2022-09-26T12:42:00.668Z,56.85
2022-09-26T12:44:58.908Z,57.76
2022-09-26T12:48:00.444Z,56.27
2022-09-26T12:50:55.142Z,56.33
2022-09-26T12:54:04.312Z,56.20
2022-09-26T12:56:54.709Z,55.81
2022-09-26T13:00:09.369Z,50.80
2022-09-26T13:03:26.193Z,50.59
2022-09-26T13:06:57.229Z,52.40
2022-09-26T13:10:04.864Z,53.07
2022-09-26T13:13:08.350Z,52.75
2022-09-26T13:16:08.121Z,52.20
2022-09-26T13:18:56.352Z,52.54
2022-09-26T13:21:45.573Z,53.34
2022-09-26T13:24:36.002Z,53.17
2022-09-26T13:27:26.767Z,52.39
2022-09-26T13:30:17.941Z,50.44
2022-09-26T13:33:09.092Z,49.99
2022-09-26T13:35:56.267Z,51.29
2022-09-26T13:38:51.599Z,50.98
2022-09-26T13:41:42.671Z,52.24
2022-09-26T13:44:38.606Z,50.45
2022-09-26T13:47:33.535Z,49.94
2022-09-26T13:50:24.918Z,50.42
2022-09-26T13:53:21.295Z,50.29
2022-09-26T13:56:30.590Z,49.05
2022-09-26T13:59:35.999Z,48.89
2022-09-26T14:02:23.295Z,50.60
2022-09-26T14:05:47.933Z,50.07
2022-09-26T14:08:50.609Z,51.91
2022-09-26T14:11:48.946Z,51.40
2022-09-26T14:14:46.207Z,52.08
2022-09-26T14:18:18.751Z,52.40
2022-09-26T14:21:15.547Z,52.74
2022-09-26T14:24:28.708Z,53.29
2022-09-26T14:27:43.057Z,53.71
2022-09-26T14:30:29.111Z,54.03
2022-09-26T14:33:14.861Z,54.48
2022-09-26T14:36:24.552Z,54.54
2022-09-26T14:39:07.403Z,54.96
2022-09-26T14:41:50.977Z,55.12
2022-09-26T14:44:37.259Z,55.16
2022-09-26T14:47:20.539Z,55.34
2022-09-26T14:50:07.430Z,55.73
2022-09-26T14:52:56.522Z,55.78
2022-09-26T14:55:54.308Z,56.04
2022-09-26T14:58:51.642Z,54.79
2022-09-26T15:01:39.364Z,54.35
2022-09-26T15:04:25.492Z,54.34
2022-09-26T15:07:18.823Z,54.16
2022-09-26T15:10:09.857Z,54.65
2022-09-26T15:12:59.068Z,55.20
2022-09-26T15:15:51.514Z,55.61
2022-09-26T15:18:39.108Z,55.09
2022-09-26T15:21:29.409Z,54.80
2022-09-26T15:24:34.214Z,53.09
2022-09-26T15:27:21.015Z,53.30
2022-09-26T15:30:06.454Z,52.23
2022-09-26T15:32:49.987Z,51.00
2022-09-26T15:35:33.428Z,50.82
2022-09-26T15:38:16.605Z,50.83
2022-09-26T15:41:04.284Z,50.29
2022-09-26T15:43:47.767Z,50.70
2022-09-26T15:46:32.148Z,49.98
2022-09-26T15:49:20.149Z,48.90
2022-09-26T15:52:03.412Z,49.26
2022-09-26T15:54:46.251Z,49.23
2022-09-26T15:57:29.366Z,49.55
2022-09-26T16:00:15.631Z,49.59
2022-09-26T16:02:58.732Z,49.62
2022-09-26T16:05:45.286Z,50.46
2022-09-26T16:08:32.787Z,50.98
2022-09-26T16:11:15.604Z,51.35
2022-09-26T16:13:58.726Z,51.41
2022-09-26T16:16:42.994Z,51.64
2022-09-26T16:19:33.498Z,52.52
2022-09-26T16:22:40.119Z,52.89
2022-09-26T16:25:32.069Z,53.26
2022-09-26T16:28:41.827Z,53.55
2022-09-26T16:31:36.440Z,53.77
2022-09-26T16:34:23.161Z,54.25
2022-09-26T16:37:18.201Z,54.63
2022-09-26T16:40:00.957Z,54.96
2022-09-26T16:42:46.063Z,55.37
2022-09-26T16:45:28.868Z,55.48
2022-09-26T16:48:36.928Z,55.84
2022-09-26T16:51:22.981Z,56.02
2022-09-26T16:54:20.686Z,56.25
2022-09-26T16:57:06.645Z,56.62
2022-09-26T16:59:49.906Z,56.87
2022-09-26T17:02:32.026Z,57.31
2022-09-26T17:05:19.393Z,57.68
2022-09-26T17:08:04.342Z,58.20
2022-09-26T17:10:47.451Z,58.91
2022-09-26T17:13:33.129Z,59.31
2022-09-26T17:16:16.216Z,59.39
2022-09-26T17:18:59.291Z,61.21
2022-09-26T17:21:42.313Z,61.80
2022-09-26T17:24:28.115Z,61.70
2022-09-26T17:27:15.696Z,61.85
2022-09-26T17:30:01.442Z,62.34
2022-09-26T17:32:49.714Z,62.69
2022-09-26T17:35:34.334Z,62.77
2022-09-26T17:38:18.870Z,63.21
2022-09-26T17:41:03.111Z,64.35
2022-09-26T17:43:46.145Z,64.19
2022-09-26T17:46:29.618Z,64.20
2022-09-26T17:49:16.794Z,65.41
2022-09-26T17:52:02.186Z,65.21
2022-09-26T17:54:47.371Z,65.13
2022-09-26T17:57:37.112Z,65.13
2022-09-26T18:00:23.649Z,65.19
2022-09-26T18:03:08.470Z,65.52
2022-09-26T18:05:51.894Z,65.77
2022-09-26T18:08:39.051Z,66.07
2022-09-26T18:11:22.680Z,66.25
2022-09-26T18:14:08.734Z,66.30
2022-09-26T18:16:51.511Z,66.71
2022-09-26T18:19:35.211Z,66.90
2022-09-26T18:22:19.982Z,67.76
2022-09-26T18:25:04.683Z,68.89
2022-09-26T18:27:48.445Z,67.35
2022-09-26T18:30:33.443Z,67.87
2022-09-26T18:33:17.754Z,68.16
2022-09-26T18:36:00.529Z,67.98
2022-09-26T18:38:43.306Z,67.97
2022-09-26T18:41:29.067Z,68.28
2022-09-26T18:44:16.515Z,68.26
2022-09-26T18:47:02.173Z,68.64
2022-09-26T18:49:46.867Z,69.42
2022-09-26T18:52:30.177Z,71.15
2022-09-26T18:55:37.072Z,69.35
2022-09-26T18:58:28.080Z,69.20
2022-09-26T19:01:16.381Z,69.40
2022-09-26T19:04:02.947Z,69.32
2022-09-26T19:06:48.349Z,69.69
2022-09-26T19:09:34.088Z,69.61
2022-09-26T19:12:19.062Z,69.80
2022-09-26T19:15:01.869Z,69.77
2022-09-26T19:17:44.717Z,69.92
2022-09-26T19:20:28.919Z,69.98
2022-09-26T19:23:13.354Z,69.79
2022-09-26T19:25:56.452Z,70.61
2022-09-26T19:28:39.752Z,70.76
2022-09-26T19:31:24.130Z,70.30
2022-09-26T19:34:07.284Z,70.37
2022-09-26T19:36:52.277Z,70.64
2022-09-26T19:39:40.638Z,71.10
2022-09-26T19:42:23.419Z,71.18
2022-09-26T19:45:07.133Z,71.25
2022-09-26T19:47:52.073Z,71.38
2022-09-26T19:50:36.574Z,71.40
2022-09-26T19:53:24.393Z,71.69
2022-09-26T19:56:07.449Z,71.51
2022-09-26T19:58:51.662Z,71.44
2022-09-26T20:01:34.552Z,71.50
2022-09-26T20:04:19.840Z,71.54
2022-09-26T20:07:02.619Z,71.52
2022-09-26T20:09:47.127Z,71.64
2022-09-26T20:12:29.909Z,71.56
2022-09-26T20:15:13.397Z,71.60
2022-09-26T20:17:58.391Z,71.64
2022-09-26T20:20:41.311Z,71.70
2022-09-26T20:23:26.159Z,71.63
2022-09-26T20:26:10.809Z,71.96
2022-09-26T20:28:53.600Z,71.71
2022-09-26T20:31:36.586Z,71.75
2022-09-26T20:34:19.354Z,71.83
2022-09-26T20:37:02.216Z,71.85
2022-09-26T20:39:46.959Z,72.04
2022-09-26T20:42:35.032Z,72.86
2022-09-26T20:45:20.633Z,72.01
2022-09-26T20:48:03.626Z,72.06
2022-09-26T20:50:48.289Z,72.64
2022-09-26T20:53:31.137Z,73.17
2022-09-26T20:56:16.894Z,74.68
2022-09-26T20:59:01.109Z,74.70
2022-09-26T21:01:44.043Z,75.31
2022-09-26T21:04:32.130Z,75.55
2022-09-26T21:07:16.636Z,75.74
2022-09-26T21:09:59.494Z,75.78
2022-09-26T21:12:42.257Z,76.71
2022-09-26T21:15:27.950Z,75.96
2022-09-26T21:18:24.138Z,77.71
2022-09-26T21:21:09.845Z,77.71
2022-09-26T21:24:07.904Z,76.85
2022-09-26T21:26:50.678Z,77.63
2022-09-26T21:29:33.481Z,77.27
2022-09-26T21:32:21.906Z,78.47
2022-09-26T21:35:05.516Z,78.50
2022-09-26T21:37:52.030Z,78.05
2022-09-26T21:40:38.575Z,78.08
2022-09-26T21:43:23.878Z,77.77
2022-09-26T21:46:07.137Z,78.29
2022-09-26T21:48:51.484Z,78.14
2022-09-26T21:51:34.364Z,78.52
2022-09-26T21:54:20.295Z,77.74
2022-09-26T21:57:07.476Z,77.85
2022-09-26T21:59:52.701Z,77.47
2022-09-26T22:02:35.547Z,77.58
2022-09-26T22:05:19.809Z,77.53
2022-09-26T22:08:02.907Z,77.43
2022-09-26T22:10:45.656Z,77.41
2022-09-26T22:13:28.451Z,77.53
2022-09-26T22:16:13.083Z,77.25
2022-09-26T22:18:55.729Z,78.00
2022-09-26T22:21:39.869Z,77.40
2022-09-26T22:24:22.888Z,77.30
2022-09-26T22:27:06.023Z,77.42
2022-09-26T22:29:49.060Z,77.40
2022-09-26T22:32:31.885Z,77.20
2022-09-26T22:35:15.096Z,77.28
2022-09-26T22:37:59.246Z,77.13
2022-09-26T22:40:42.202Z,76.94
2022-09-26T22:43:25.237Z,76.93
2022-09-26T22:46:09.990Z,77.11
2022-09-26T22:48:52.823Z,76.94
2022-09-26T22:51:35.590Z,76.98
2022-09-26T22:54:19.701Z,76.83
2022-09-26T22:57:02.516Z,76.85
2022-09-26T22:59:45.289Z,76.89
2022-09-26T23:02:28.139Z,76.78
2022-09-26T23:05:11.032Z,76.75
2022-09-26T23:07:54.195Z,76.74
2022-09-26T23:10:38.705Z,76.66
2022-09-26T23:13:21.470Z,76.66
2022-09-26T23:16:05.742Z,76.68
2022-09-26T23:18:49.348Z,76.64
2022-09-26T23:21:32.141Z,76.54
2022-09-26T23:24:14.964Z,76.65
2022-09-26T23:27:00.415Z,76.61
2022-09-26T23:29:43.204Z,76.63
2022-09-26T23:32:26.050Z,76.62
2022-09-26T23:35:09.139Z,76.55
2022-09-26T23:37:51.922Z,76.67
2022-09-26T23:40:35.053Z,76.55
2022-09-26T23:43:19.512Z,76.77
2022-09-26T23:46:02.418Z,76.65
2022-09-26T23:48:45.322Z,76.79
2022-09-26T23:51:28.108Z,76.80
2022-09-26T23:54:11.056Z,76.84
2022-09-26T23:56:53.823Z,77.08
2022-09-26T23:59:37.959Z,76.99
